Time;durP1;ratioP1;P1;durP2;ratioP2;P2;SDS_P1;SDS_P2;PMS_P1;PMS_P2;Temp;Humidity;BMP_temperature;BMP_pressure;BME280_temperature;BME280_humidity;BME280_pressure;Samples;Min_cycle;Max_cycle;Signal;HPM_P1;HPM_P2
2021/12/23 13:24:15;;;;;;;;;;;21.30;52.50;;;;;;5109121;27;19916;-57
2021/12/23 13:26:40;;;;;;;;;;;21.20;54.40;;;;;;5108543;28;19984;-60
2021/12/23 13:29:08;;;;;;;;;;;21.10;51.90;;;;;;5110201;28;19924;-60
2021/12/23 13:31:54;;;;;;;;;;;21.30;52.20;;;;;;5087288;27;19912;-67
2021/12/23 13:34:23;;;;;;;;;;;21.40;52.50;;;;;;5086398;28;20324;-71
2021/12/23 13:36:50;;;;;;;;;;;21.40;51.80;;;;;;5084743;27;19928;-62
2021/12/23 13:39:17;;;;;;;;;;;21.50;53.40;;;;;;5092780;27;19928;-63
2021/12/23 13:41:44;;;;;;;;;;;21.60;52.10;;;;;;5103338;27;19931;-58
2021/12/23 13:44:15;;;;;;;;;;;21.70;53.20;;;;;;5086804;28;20019;-56
2021/12/23 13:46:41;;;;;;;;;;;21.90;52.40;;;;;;5070540;27;20329;-58
2021/12/23 13:49:07;;;;;;;;;;;22.00;52.60;;;;;;5120948;27;20288;-58
2021/12/23 13:51:35;;;;;;;0.00;0.00;;;22.00;51.10;;;;;;5064833;27;20480;-66
2021/12/23 13:54:09;;;;;;;0.70;0.70;;;22.00;52.60;;;;;;5064889;28;20469;-65
2021/12/23 13:56:35;;;;;;;0.05;0.05;;;20.00;43.10;;;;;;5063866;28;20492;-65
2021/12/23 13:59:09;;;;;;;31.05;22.08;;;17.80;45.80;;;;;;5064514;28;20420;-66
2021/12/23 15:22:36;;;;;;;16.90;12.02;;;;;;;;;;5127305;27;20352;-60
2021/12/23 15:25:05;;;;;;;22.27;15.43;;;;;;;;;;5129945;28;20117;-56
2021/12/23 15:27:32;;;;;;;22.02;13.57;;;;;;;;;;5128902;28;20122;-55
2021/12/23 15:30:01;;;;;;;29.92;21.02;;;;;;;;;;5119695;27;20040;-56
2021/12/23 15:32:28;;;;;;;29.48;19.88;;;;;;;;;;5110331;28;20057;-55
2021/12/23 15:35:04;;;;;;;28.10;20.17;;;;;;;;;;5109440;28;20072;-55
2021/12/23 15:37:36;;;;;;;30.73;20.38;;;;;;;;;;5110201;28;20092;-55
2021/12/23 15:40:02;;;;;;;30.13;19.45;;;;;;;;;;5110245;28;20122;-55
2021/12/23 15:42:28;;;;;;;29.05;19.10;;;;;;;;;;5109456;28;20540;-55
2021/12/23 15:44:54;;;;;;;27.27;19.90;;;;;;;;;;5110139;28;20040;-55
2021/12/23 15:47:21;;;;;;;25.83;18.17;;;;;;;;;;5109878;28;20372;-55
2021/12/23 15:49:47;;;;;;;26.20;18.50;;;;;;;;;;5109742;28;20131;-55
2021/12/23 15:52:13;;;;;;;24.77;16.80;;;;;;;;;;5107620;28;20063;-55
2021/12/23 15:54:39;;;;;;;26.20;19.25;;;;;;;;;;5108267;28;20176;-55
2021/12/23 15:57:05;;;;;;;24.83;17.25;;;;;;;;;;5109400;28;20048;-55
2021/12/23 15:59:32;;;;;;;23.80;18.20;;;;;;;;;;5109662;28;20055;-55
2021/12/23 16:02:00;;;;;;;24.98;17.25;;;;;;;;;;5109031;28;20040;-55
2021/12/23 16:04:30;;;;;;;22.25;15.68;;;;;;;;;;5107445;28;20524;-56
2021/12/23 16:09:42;;;;;;;25.95;17.27;;;;;;;;;;5108903;28;20564;-55
2021/12/23 16:12:08;;;;;;;24.25;16.58;;;;;;;;;;5105776;28;20028;-54
2021/12/23 16:14:34;;;;;;;21.80;15.68;;;;;;;;;;5109693;28;20052;-54
2021/12/23 16:17:00;;;;;;;22.65;16.70;;;;;;;;;;5108916;28;20499;-55
2021/12/23 16:19:26;;;;;;;26.70;16.80;;;;;;;;;;5109268;28;20044;-54
2021/12/23 16:21:52;;;;;;;20.58;15.95;;;;;;;;;;5109414;28;20052;-55
2021/12/23 16:24:18;;;;;;;20.50;16.70;;;;;;;;;;5108447;28;20040;-55
2021/12/23 16:26:44;;;;;;;22.95;17.60;;;;;;;;;;5091922;28;20396;-55
2021/12/23 16:29:10;;;;;;;26.05;16.23;;;;;;;;;;5088920;28;20055;-54
2021/12/23 16:31:37;;;;;;;25.83;17.05;;;;;;;;;;5087546;28;20055;-55
2021/12/23 16:34:03;;;;;;;20.63;15.05;;;;;;;;;;5075352;28;20051;-55
2021/12/23 16:36:29;;;;;;;24.27;16.45;;;;;;;;;;5075150;28;20045;-55
2021/12/23 16:38:57;;;;;;;19.27;14.75;;;;;;;;;;5075149;28;20407;-55
2021/12/23 16:41:24;;;;;;;21.75;16.70;;;;;;;;;;5075015;28;20101;-57
2021/12/23 16:43:50;;;;;;;22.25;16.77;;;;;;;;;;5075156;28;20492;-56
2021/12/23 16:46:16;;;;;;;22.98;18.15;;;;;;;;;;5074912;28;20040;-56
2021/12/23 16:48:42;;;;;;;23.70;16.92;;;;;;;;;;5075330;28;20063;-56
2021/12/23 16:51:10;;;;;;;21.88;16.38;;;;;;;;;;5075351;28;20045;-56
2021/12/23 16:53:36;;;;;;;23.58;18.25;;;;;;;;;;5075100;28;20048;-56
2021/12/23 16:56:16;;;;;;;22.00;16.63;;;;;;;;;;5075097;28;20048;-55
2021/12/23 16:58:43;;;;;;;42.67;27.02;;;;;;;;;;5073884;28;20068;-55
2021/12/23 17:01:09;;;;;;;43.13;28.75;;;;;;;;;;5074910;28;20048;-56
2021/12/23 17:03:35;;;;;;;40.63;27.40;;;;;;;;;;5074618;28;20048;-56
2021/12/23 17:06:01;;;;;;;41.78;28.98;;;;;;;;;;5073759;28;20400;-55
2021/12/23 17:08:27;;;;;;;33.90;23.52;;;;;;;;;;5074628;28;20193;-56
2021/12/23 17:10:54;;;;;;;30.40;22.20;;;;;;;;;;5075217;28;20055;-56
2021/12/23 17:13:20;;;;;;;30.90;23.20;;;;;;;;;;5074182;28;20119;-56
2021/12/23 17:15:46;;;;;;;29.35;22.42;;;;;;;;;;5083393;28;20082;-56
2021/12/23 17:18:21;;;;;;;35.75;22.80;;;;;;;;;;5094326;28;20048;-56
2021/12/23 17:23:14;;;;;;;32.17;23.90;;;;;;;;;;5091278;28;20056;-56
2021/12/23 17:25:40;;;;;;;31.08;24.55;;;;;;;;;;5093466;28;20044;-56
2021/12/23 17:28:06;;;;;;;30.15;24.27;;;;;;;;;;5092300;28;20059;-56
2021/12/23 17:30:33;;;;;;;29.15;21.48;;;;;;;;;;5094229;28;20051;-56
2021/12/23 17:32:59;;;;;;;32.38;24.77;;;;;;;;;;5094276;28;20078;-56
2021/12/23 17:35:30;;;;;;;27.95;20.25;;;;;;;;;;5093466;28;20127;-56
2021/12/23 17:37:58;;;;;;;28.42;22.88;;;;;;;;;;5094559;28;20043;-57
2021/12/23 17:40:25;;;;;;;30.23;22.00;;;;;;;;;;5093447;28;20044;-56
2021/12/23 17:42:51;;;;;;;28.58;22.35;;;;;;;;;;5094327;28;20044;-56
2021/12/23 17:45:17;;;;;;;26.58;21.33;;;;;;;;;;5093284;28;20047;-56
2021/12/23 17:47:43;;;;;;;28.40;22.30;;;;;;;;;;5093322;28;20048;-56
2021/12/23 17:50:09;;;;;;;31.48;23.13;;;;;;;;;;5094130;28;20514;-56
2021/12/23 17:52:35;;;;;;;28.05;22.88;;;;;;;;;;5093681;28;20492;-56
2021/12/23 17:55:01;;;;;;;33.13;24.42;;;;;;;;;;5093242;28;20105;-56
2021/12/23 17:57:27;;;;;;;34.65;25.42;;;;;;;;;;5093679;28;20105;-55
2021/12/23 17:59:53;;;;;;;33.33;26.05;;;;;;;;;;5092543;28;20091;-55
2021/12/23 18:02:22;;;;;;;45.55;27.80;;;;;;;;;;5093131;28;20404;-55
2021/12/23 18:04:48;;;;;;;35.97;25.57;;;;;;;;;;5094099;28;20043;-63
2021/12/23 18:07:14;;;;;;;36.20;24.85;;;;;;;;;;5093979;28;20048;-55
2021/12/23 18:09:40;;;;;;;40.72;28.58;;;;;;;;;;5093050;28;20048;-56
2021/12/23 18:12:07;;;;;;;84.68;57.00;;;;;;;;;;5093312;28;20108;-55
2021/12/23 18:14:34;;;;;;;101.28;65.38;;;;;;;;;;5093288;28;20518;-56
2021/12/23 18:17:00;;;;;;;115.28;75.20;;;;;;;;;;5093034;28;20123;-55
2021/12/23 18:19:26;;;;;;;126.40;78.00;;;;;;;;;;5093274;28;20049;-57
2021/12/23 18:21:52;;;;;;;66.47;42.08;;;;;;;;;;5092789;28;20052;-57
2021/12/23 18:24:18;;;;;;;52.50;32.55;;;;;;;;;;5092904;28;20488;-57
2021/12/23 18:26:44;;;;;;;45.45;28.33;;;;;;;;;;5093120;28;20071;-57
2021/12/23 18:29:10;;;;;;;38.92;24.85;;;;;;;;;;5093114;28;20403;-57
2021/12/23 18:31:36;;;;;;;33.55;21.65;;;;;;;;;;5091069;28;20411;-56
2021/12/23 18:34:03;;;;;;;33.95;20.98;;;;;;;;;;5093199;28;20479;-56
2021/12/23 18:36:42;;;;;;;33.75;19.92;;;;;;;;;;5085599;28;20074;-56
2021/12/23 18:39:11;;;;;;;33.00;18.65;;;;;;;;;;5083860;28;20069;-56
2021/12/23 18:41:38;;;;;;;32.67;17.95;;;;;;;;;;5083446;28;20123;-57
2021/12/23 18:44:05;;;;;;;28.90;16.25;;;;;;;;;;5082051;28;20048;-56
2021/12/23 18:46:31;;;;;;;29.42;16.98;;;;;;;;;;5081211;28;20051;-57
2021/12/23 18:48:57;;;;;;;32.05;18.20;;;;;;;;;;5083475;28;20067;-57
2021/12/23 18:51:23;;;;;;;28.02;16.17;;;;;;;;;;5090241;28;20051;-56
2021/12/23 18:53:49;;;;;;;29.23;16.30;;;;;;;;;;5093308;28;20471;-56
2021/12/23 18:56:16;;;;;;;27.02;15.88;;;;;;;;;;5092861;28;20048;-59
2021/12/23 18:58:42;;;;;;;29.20;17.48;;;;;;;;;;5092075;28;20474;-60
2021/12/23 19:01:10;;;;;;;24.75;15.43;;;;;;;;;;5082825;28;20052;-56
2021/12/23 19:08:32;;;;;;;27.30;14.50;;;;;;;;;;5082473;28;20105;-57
2021/12/23 19:10:58;;;;;;;25.58;14.35;;;;;;;;;;5082491;28;20045;-56
2021/12/23 19:13:24;;;;;;;22.15;13.95;;;;;;;;;;5080190;28;20400;-56
2021/12/23 19:15:50;;;;;;;22.42;13.60;;;;;;;;;;5083014;28;20133;-57
2021/12/23 19:18:16;;;;;;;21.23;11.93;;;;;;;;;;5080468;28;20420;-56
2021/12/23 19:20:42;;;;;;;22.60;14.60;;;;;;;;;;5081737;28;20056;-57
2021/12/23 19:23:08;;;;;;;21.23;12.27;;;;;;;;;;5084116;28;20048;-56
2021/12/23 19:25:35;;;;;;;22.70;13.50;;;;;;;;;;5080508;28;20138;-57
2021/12/23 19:28:01;;;;;;;23.63;15.05;;;;;;;;;;5081743;28;20487;-57
2021/12/23 19:30:27;;;;;;;22.42;13.43;;;;;;;;;;5082268;28;20051;-56
2021/12/23 19:32:53;;;;;;;23.92;16.23;;;;;;;;;;5080895;28;20151;-56
2021/12/23 19:35:22;;;;;;;26.17;14.75;;;;;;;;;;5082578;28;20050;-57
2021/12/23 19:37:49;;;;;;;28.02;15.35;;;;;;;;;;5077772;28;20102;-56
2021/12/23 19:40:15;;;;;;;22.67;13.25;;;;;;;;;;5071772;28;20052;-56
2021/12/23 19:42:41;;;;;;;23.00;13.27;;;;;;;;;;5072260;28;20041;-56
2021/12/23 19:45:07;;;;;;;24.23;14.13;;;;;;;;;;5072826;28;20048;-57
2021/12/23 19:47:36;;;;;;;31.42;20.15;;;;;;;;;;5082098;28;20119;-57
2021/12/23 19:50:06;;;;;;;29.63;21.52;;;;;;;;;;5082165;28;20037;-56
2021/12/23 19:52:32;;;;;;;33.65;21.27;;;;;;;;;;5080572;28;20036;-56
2021/12/23 19:54:58;;;;;;;32.00;22.70;;;;;;;;;;5081812;28;20040;-56
2021/12/23 19:57:24;;;;;;;29.10;21.45;;;;;;;;;;5081730;28;20492;-56
2021/12/23 19:59:50;;;;;;;30.75;20.17;;;;;;;;;;5086640;28;20051;-57
2021/12/23 20:02:16;;;;;;;27.45;19.45;;;;;;;;;;5091897;28;20448;-56
2021/12/23 20:04:42;;;;;;;31.55;21.77;;;;;;;;;;5092140;28;20480;-56
2021/12/23 20:07:08;;;;;;;27.98;20.17;;;;;;;;;;5092876;28;20044;-56
2021/12/23 20:09:34;;;;;;;32.65;22.38;;;;;;;;;;5095422;28;20475;-56
2021/12/23 20:12:00;;;;;;;28.13;20.33;;;;;;;;;;5096258;28;20399;-56
2021/12/23 20:14:26;;;;;;;26.73;19.65;;;;;;;;;;5095766;28;20056;-56
2021/12/23 20:16:52;;;;;;;26.30;18.73;;;;;;;;;;5095563;28;20044;-56
2021/12/23 20:19:18;;;;;;;25.98;19.85;;;;;;;;;;5096229;28;20044;-56
2021/12/23 20:21:44;;;;;;;23.05;18.50;;;;;;;;;;5094131;28;20051;-56
2021/12/23 20:24:10;;;;;;;22.90;17.73;;;;;;;;;;5095539;28;20036;-57
2021/12/23 20:26:37;;;;;;;23.58;17.63;;;;;;;;;;5095770;28;20241;-56
2021/12/23 20:29:04;;;;;;;25.85;18.52;;;;;;;;;;5096024;28;20051;-56
2021/12/23 20:31:37;;;;;;;23.27;17.10;;;;;;;;;;5095232;28;20044;-56
2021/12/23 20:34:03;;;;;;;26.63;18.40;;;;;;;;;;5095913;28;20044;-56
2021/12/23 20:36:29;;;;;;;25.42;17.92;;;;;;;;;;5094837;28;20055;-57
2021/12/23 20:38:55;;;;;;;23.65;17.00;;;;;;;;;;5095713;28;20372;-57
2021/12/23 20:41:21;;;;;;;24.75;16.13;;;;;;;;;;5095923;28;20044;-56
2021/12/23 20:43:47;;;;;;;22.40;16.15;;;;;;;;;;5095141;28;20051;-56
2021/12/23 20:46:13;;;;;;;23.65;16.73;;;;;;;;;;5095781;28;20129;-56
2021/12/23 20:48:39;;;;;;;26.00;18.08;;;;;;;;;;5095472;28;20411;-59
2021/12/23 20:51:07;;;;;;;22.50;17.35;;;;;;;;;;5093337;28;20048;-56
2021/12/23 20:53:37;;;;;;;41.30;30.63;;;;;;;;;;5095220;28;20089;-57
2021/12/23 20:56:04;;;;;;;93.32;68.70;;;;;;;;;;5095385;28;20047;-57
2021/12/23 20:58:32;;;;;;;79.10;59.95;;;;;;;;;;5091905;28;20487;-57
2021/12/23 21:00:58;;;;;;;86.85;64.38;;;;;;;;;;5085719;28;20059;-56
2021/12/23 21:03:24;;;;;;;103.28;77.43;;;;;;;;;;5083862;28;20044;-57
2021/12/23 21:05:51;;;;;;;113.90;80.82;;;;;;;;;;5082300;28;20044;-57
2021/12/23 21:08:17;;;;;;;103.13;74.68;;;;;;;;;;5085649;28;20424;-56
2021/12/23 21:10:43;;;;;;;112.18;82.75;;;;;;;;;;5083377;28;20036;-57
2021/12/23 21:13:09;;;;;;;140.50;98.80;;;;;;;;;;5083714;28;20044;-57
2021/12/23 21:15:45;;;;;;;141.00;97.22;;;;;;;;;;5085190;28;20475;-56
2021/12/23 21:18:11;;;;;;;135.18;92.53;;;;;;;;;;5084554;28;20392;-57
2021/12/23 21:20:37;;;;;;;48.88;33.25;;;;;;;;;;5081925;28;20048;-56
2021/12/23 21:23:04;;;;;;;55.92;38.22;;;;;;;;;;5084789;28;20044;-56
2021/12/23 21:25:30;;;;;;;68.35;46.53;;;;;;;;;;5083407;28;20029;-56
2021/12/23 21:27:56;;;;;;;51.15;35.92;;;;;;;;;;5087571;28;20498;-56
2021/12/23 21:30:22;;;;;;;38.10;25.42;;;;;;;;;;5085226;28;20041;-56
2021/12/23 21:32:48;;;;;;;36.65;25.05;;;;;;;;;;5082225;28;20195;-56
2021/12/23 21:35:14;;;;;;;59.08;41.47;;;;;;;;;;5084555;28;20043;-56
2021/12/23 21:37:40;;;;;;;75.47;50.83;;;;;;;;;;5092739;28;20070;-56
2021/12/23 21:40:07;;;;;;;111.78;58.47;;;;;;;;;;5090920;28;20065;-55
2021/12/23 21:42:33;;;;;;;86.40;49.45;;;;;;;;;;5076622;28;20462;-56
2021/12/23 21:44:59;;;;;;;90.25;49.80;;;;;;;;;;5074030;28;20055;-55
2021/12/23 21:47:25;;;;;;;92.65;49.65;;;;;;;;;;5073180;28;20044;-55
2021/12/23 21:49:51;;;;;;;89.05;47.70;;;;;;;;;;5073715;28;20085;-55
2021/12/23 21:52:18;;;;;;;87.35;46.38;;;;;;;;;;5073920;28;20056;-53
2021/12/23 21:54:47;;;;;;;59.40;33.05;;;;;;;;;;5073370;28;20048;-54
2021/12/23 21:57:13;;;;;;;59.47;34.13;;;;;;;;;;5074137;28;20044;-53
2021/12/23 21:59:40;;;;;;;61.25;33.10;;;;;;;;;;5088304;28;20044;-54
2021/12/23 22:02:06;;;;;;;46.92;27.30;;;;;;;;;;5093589;28;20127;-54
2021/12/23 22:04:32;;;;;;;54.97;26.05;;;;;;;;;;5093934;28;20032;-54
2021/12/23 22:06:58;;;;;;;42.40;23.55;;;;;;;;;;5093846;28;20128;-54
2021/12/23 22:09:25;;;;;;;43.25;24.65;;;;;;;;;;5093308;28;20044;-54
2021/12/23 22:11:51;;;;;;;39.40;23.27;;;;;;;;;;5094041;28;20632;-54
2021/12/23 22:14:18;;;;;;;41.85;22.88;;;;;;;;;;5093816;28;20519;-54
2021/12/23 22:16:44;;;;;;;34.45;21.33;;;;;;;;;;5093308;28;20127;-54
2021/12/23 22:19:10;;;;;;;40.20;20.88;;;;;;;;;;5094073;28;20139;-54
2021/12/23 22:21:36;;;;;;;33.67;21.77;;;;;;;;;;5093023;28;20507;-54
2021/12/23 22:24:05;;;;;;;31.52;18.73;;;;;;;;;;5093468;28;20051;-55
2021/12/23 22:26:31;;;;;;;34.20;18.55;;;;;;;;;;5093503;28;20040;-54
2021/12/23 22:28:57;;;;;;;31.95;19.13;;;;;;;;;;5093086;28;20047;-54
2021/12/23 22:31:23;;;;;;;29.65;17.60;;;;;;;;;;5092834;28;20071;-54
2021/12/23 22:33:49;;;;;;;25.83;17.20;;;;;;;;;;5093793;28;20059;-54
2021/12/23 22:36:16;;;;;;;29.25;16.90;;;;;;;;;;5093006;28;20047;-53
2021/12/23 22:38:42;;;;;;;28.45;16.85;;;;;;;;;;5093377;28;20498;-53
2021/12/23 22:41:08;;;;;;;26.58;16.10;;;;;;;;;;5093238;28;20052;-53
2021/12/23 22:43:34;;;;;;;28.58;15.38;;;;;;;;;;5092663;28;20036;-53
2021/12/23 22:46:00;;;;;;;26.00;14.68;;;;;;;;;;5093493;28;20048;-53
2021/12/23 22:48:26;;;;;;;24.42;14.40;;;;;;;;;;5093103;28;20066;-53
2021/12/23 22:50:52;;;;;;;28.17;15.20;;;;;;;;;;5092882;28;20499;-52
2021/12/23 22:53:18;;;;;;;24.95;14.95;;;;;;;;;;5093407;28;20040;-53
2021/12/23 22:55:45;;;;;;;20.13;12.88;;;;;;;;;;5091732;28;20127;-53
2021/12/23 22:58:11;;;;;;;22.80;13.07;;;;;;;;;;5092683;28;20044;-53
2021/12/23 23:00:40;;;;;;;24.00;13.77;;;;;;;;;;5092842;28;20136;-53
2021/12/23 23:03:10;;;;;;;19.15;12.07;;;;;;;;;;5093184;28;20040;-53
2021/12/23 23:05:36;;;;;;;20.25;12.90;;;;;;;;;;5092567;28;20096;-53
2021/12/23 23:08:02;;;;;;;17.98;11.15;;;;;;;;;;5093208;28;20051;-52
2021/12/23 23:10:38;;;;;;;22.73;13.68;;;;;;;;;;5092604;28;20087;-53
2021/12/23 23:13:12;;;;;;;20.60;12.13;;;;;;;;;;5092511;28;20093;-53
2021/12/23 23:18:23;;;;;;;20.40;11.55;;;;;;;;;;5092080;28;20048;-53
2021/12/23 23:20:49;;;;;;;18.40;10.65;;;;;;;;;;5092794;28;20376;-53
2021/12/23 23:23:15;;;;;;;19.20;9.90;;;;;;;;;;5092700;28;20040;-53
2021/12/23 23:25:44;;;;;;;16.20;10.20;;;;;;;;;;5092021;28;20402;-52
2021/12/23 23:36:31;;;;;;;19.17;9.90;;;;;;;;;;5092544;28;20487;-53
2021/12/23 23:39:08;;;;;;;14.60;9.02;;;;;;;;;;5092733;28;20052;-52
2021/12/23 23:41:34;;;;;;;16.65;9.35;;;;;;;;;;5092590;28;20074;-53
2021/12/23 23:44:01;;;;;;;14.32;9.13;;;;;;;;;;5096139;28;20047;-52
2021/12/23 23:46:32;;;;;;;18.90;9.93;;;;;;;;;;5095444;28;20052;-52
2021/12/23 23:48:58;;;;;;;14.65;8.20;;;;;;;;;;5096840;28;20044;-52
2021/12/23 23:51:24;;;;;;;12.20;7.90;;;;;;;;;;5096344;28;20377;-53
2021/12/23 23:53:50;;;;;;;15.65;9.07;;;;;;;;;;5096077;28;20079;-53
2021/12/23 23:56:18;;;;;;;14.95;8.23;;;;;;;;;;5096297;28;20047;-53
2021/12/23 23:58:44;;;;;;;12.18;7.72;;;;;;;;;;5095725;28;20044;-53
